메인 페이지
METAR-TAF:

METAR-TAF

공항 :

인헤니에로 아에로나르띠꼬 엠브로시오 L.V. 타라벨라 국제공항

코르도바, 아르헨티나

위도: 31-19S, 경도: 064-13W, 고도: 484m

현재 날씨관측

예보는 39분 전, 18:00시(UTC)에 발표되었습니다.
북동17kt
온도 19°C
습도 32%
기압 1009 hPa
시정 10km 이상
1500m 미만 상공 구름 및 적란운 없음

METAR: SACO 221800Z 05017KT CAVOK 19/02 Q1009 NOSIG

시각: 15:39 (18:39 UTC)

예보

예보는 1 시간 39분 전, 17:00시(UTC)에 발표되었습니다.
예보 대상 시간: 22일 18시부터 23일 18시까지 (UTC)
북동18kt
시정 10km 이상
1500m 미만 상공 구름 및 적란운 없음
전환 중
22일 23시부터 23일 01시까지 (UTC)
5kt
전환 중
23일 10시부터 23일 12시까지 (UTC)
10kt
시정 10km 이상
고도 3000ft 상공 구름 보통

TAF: SACO 221700Z 2218/2318 05018KT CAVOK TX20/2218Z TN10/2310Z BECMG 2223/2301 36005KT BECMG 2310/2312 18010KT 9999 SCT030

4,000개 이상의 공항 관측 자료 및 예보 (METAR 및 TAF 보고).

지도상에서 검색 가능한 기상관측소가 노란 점과 빨간 점으로 표시되어 있습니다.

기상관측소 명을 보려면 표시 위로 마우스를 이동하세요.

날씨 관측과 예보를 보려면 클릭하세요.

지도 변경 : 확대하려면 엑스 표시가 있는 녹색 버튼, 축소하려면 빼기 표시가 있는 녹색 버튼, 다음 페이지의 지도를 보려면 녹색 화살표를 클릭하세요.


METAR-TAF: